Flight Track Log - Related Links

Times and Time Zones

All times are in EDT time to prevent confusion due to time zone crossing. See the AWI3883 flight status page for this flight to view local times or setup timezone preferences in your user account.

Time Position Orientation Groundspeed Altitude Reporting Facility
EDT Latitude Longitude Course Direction KTS MPH feet Rate Location/Type
Mon 05:15:33 PM 43.0617 -76.0667 160° South 234 269 3,500  Level Boston Center
Mon 05:16:00 PM 42.8947 -76.3483 223° Southwest  Level FlightAware Approximate
Mon 05:17:00 PM 42.8262 -76.4340 223° Southwest  Level FlightAware Approximate
Mon 05:17:17 PM 42.9650 -76.1522 213° Southwest 293 337 8,200  Level New York Center
Mon 05:18:00 PM 42.7501 -76.5055 210° Southwest  Level FlightAware Approximate
Mon 05:18:18 PM 42.9058 -76.2153 218° Southwest 283 326 10,000  Level New York Center
Mon 05:19:00 PM 42.6694 -76.5683 210° Southwest  Level FlightAware Approximate
Mon 05:19:15 PM 42.8294 -76.2936 217° Southwest 304 350 10,500  Level New York Center
Mon 05:20:16 PM 42.7489 -76.3714 215° Southwest 340 391 11,500 1,279 Climbing New York Center
Mon 05:21:17 PM 42.6678 -76.4544 217° Southwest 360 414 13,100 1,388 Climbing New York Center
Mon 05:22:17 PM 42.5850 -76.5347 216° Southwest 365 420 14,300 1,664 Climbing New York Center
Mon 05:23:16 PM 42.5019 -76.6172 216° Southwest 365 420 16,400 1,339 Climbing New York Center
Mon 05:24:18 PM 42.4231 -76.6972 217° Southwest 365 420 17,000 800 Climbing New York Center
Mon 05:25:16 PM 42.3400 -76.7767 215° Southwest 365 420 18,000 1,210 Climbing New York Center
Mon 05:26:17 PM 42.2608 -76.8592 218° Southwest 365 420 19,400 1,388 Climbing New York Center
Mon 05:27:17 PM 42.1797 -76.9356 215° Southwest 365 420 20,800 1,636 Climbing New York Center
Mon 05:28:18 PM 42.0964 -77.0203 217° Southwest 360 414 22,700 1,627 Climbing New York Center
Mon 05:29:15 PM 42.0178 -77.0881 213° Southwest 355 409 24,000 650 Climbing New York Center
Mon 05:30:18 PM 41.9394 -77.1531 212° Southwest 350 403 24,000  Level New York Center
Mon 05:31:16 PM 41.8586 -77.2206 212° Southwest 345 397 24,000  Level New York Center
Mon 05:32:15 PM 41.7800 -77.2853 212° Southwest 340 391 24,000  Level New York Center
Mon 05:33:16 PM 41.6994 -77.3525 212° Southwest 340 391 24,000  Level New York Center
Mon 05:34:17 PM 41.6186 -77.4194 212° Southwest 340 391 24,000  Level New York Center
Mon 05:35:15 PM 41.5344 -77.4694 204° Southwest 340 391 24,000 -458 Level New York Center
Mon 05:36:15 PM 41.4325 -77.4314 164° South 347 399 23,100 -1,082 Descending New York Center
Mon 05:37:17 PM 41.3250 -77.3767 159° South 376 433 21,800 -1,279 Descending New York Center
Mon 05:38:17 PM 41.2175 -77.3247 160° South 398 458 20,500 -944 Descending New York Center
Mon 05:40:15 PM 40.9983 -77.2211 160° South 421 484 19,000 -506 Descending New York Center
Mon 05:41:15 PM 40.8925 -77.1728 161° South 414 476 19,000  Level New York Center
Mon 05:42:16 PM 40.7908 -77.1247 160° South 403 464 19,000  Level New York Center
Mon 05:43:17 PM 40.6908 -77.0853 163° South 388 447 19,000  Level New York Center
Mon 05:44:15 PM 40.5861 -77.0567 168° South 388 447 19,000  Level New York Center
Mon 05:45:16 PM 40.4978 -77.0294 167° South 383 441 19,000  Level New York Center
Mon 05:46:16 PM 40.3850 -76.9975 168° South 383 441 19,000  Level New York Center
Mon 05:47:18 PM 40.2822 -76.9692 168° South 383 441 19,000  Level New York Center
Mon 05:48:15 PM 40.1814 -76.9411 168° South 383 441 19,000  Level New York Center
Mon 05:49:16 PM 40.0789 -76.9103 167° South 377 434 19,000  Level New York Center
Mon 05:50:17 PM 39.9906 -76.8836 167° South 377 434 19,000 -403 Level New York Center
Mon 05:51:15 PM 39.8794 -76.8550 169° South 371 427 18,200 -1,008 Descending New York Center
Mon 05:52:16 PM 39.7992 -76.8319 168° South 351 404 17,000 -1,300 Descending New York Center
Mon 05:53:15 PM 39.7069 -76.8050 167° South 325 374 15,600 -1,361 Descending New York Center
Mon 05:53:53 PM 39.6500 -76.7833 164° South 308 354 14,800 -1,327 Descending Potomac TRACON
Mon 05:54:59 PM 39.5667 -76.7167 148° Southeast 307 353 13,300 -1,286 Descending Potomac TRACON
Mon 05:55:59 PM 39.5000 -76.6500 142° Southeast 306 352 12,100 -678 Descending Potomac TRACON
Mon 05:56:54 PM 39.4500 -76.6000 142° Southeast 299 344 12,000 -52 Descending Potomac TRACON
Mon 05:57:54 PM 39.3667 -76.6000 180° South 283 326 12,000 -750 Level Potomac TRACON
Mon 05:58:54 PM 39.3000 -76.6167 191° South 271 312 10,500 -1,000 Descending Potomac TRACON
Mon 05:59:54 PM 39.2167 -76.6500 197° South 273 314 10,000 -261 Descending Potomac TRACON
Mon 06:00:49 PM 39.1500 -76.6833 201° Southwest 268 308 10,000  Level Potomac TRACON
Mon 06:01:49 PM 39.1000 -76.7333 218° Southwest 263 303 10,000 -700 Level Potomac TRACON
Mon 06:02:49 PM 39.0500 -76.8000 226° Southwest 266 306 8,600 -1,632 Descending Potomac TRACON
Mon 06:03:43 PM 39.0000 -76.8667 226° Southwest 254 292 6,900 -1,300 Descending Potomac TRACON
Mon 06:04:49 PM 38.9667 -76.9500 243° Southwest 262 302 6,000 -857 Descending Potomac TRACON
Mon 06:05:49 PM 38.9833 -77.0333 284° West 272 313 5,100 -650 Descending Potomac TRACON
Mon 06:06:49 PM 39.0333 -77.1000 314° West 224 258 4,700 -800 Descending Potomac TRACON
Mon 06:07:49 PM 39.0667 -77.1500 311° West 190 219 3,500 -850 Descending Potomac TRACON
Mon 06:08:49 PM 39.0667 -77.2000 270° West 177 204 3,000 -250 Descending Potomac TRACON
Mon 06:09:49 PM 39.0167 -77.2167 195° South 171 197 3,000  Level Potomac TRACON
Mon 06:10:49 PM 38.9833 -77.1667 131° Southeast 172 198 3,000  Level Potomac TRACON

Login

Don't have an account? Register now (free) for customized features, flight alerts, and more!